Time;durP1;ratioP1;P1;durP2;ratioP2;P2;SDS_P1;SDS_P2;PMS_P1;PMS_P2;Temp;Humidity;BMP_temperature;BMP_pressure;BME280_temperature;BME280_humidity;BME280_pressure;Samples;Min_cycle;Max_cycle;Signal;HPM_P1;HPM_P2
2021/11/03 00:02:20;;;;;;;7.03;4.22;;;4.80;99.90;;;;;;2026130;70;21058;-77
2021/11/03 00:04:47;;;;;;;5.80;4.53;;;4.90;99.90;;;;;;2023075;70;21050;-76
2021/11/03 00:07:13;;;;;;;9.18;4.67;;;4.90;99.90;;;;;;2027921;70;21474;-77
2021/11/03 00:09:39;;;;;;;12.65;5.25;;;4.90;99.90;;;;;;2029431;70;21458;-77
2021/11/03 00:12:05;;;;;;;10.75;5.95;;;4.90;99.90;;;;;;2024427;70;21409;-77
2021/11/03 00:14:31;;;;;;;8.78;5.47;;;4.90;99.90;;;;;;2026330;69;21507;-78
2021/11/03 00:16:57;;;;;;;5.65;5.03;;;4.90;99.90;;;;;;2029366;69;21108;-77
2021/11/03 00:19:23;;;;;;;7.10;5.05;;;4.90;99.90;;;;;;2023117;70;21047;-76
2021/11/03 00:21:49;;;;;;;6.17;4.35;;;5.00;99.90;;;;;;2025762;70;21030;-77
2021/11/03 00:24:15;;;;;;;6.03;4.55;;;5.00;99.90;;;;;;2025653;70;21076;-77
2021/11/03 00:26:42;;;;;;;7.22;4.62;;;5.00;99.90;;;;;;2023881;70;21107;-78
2021/11/03 00:29:08;;;;;;;5.20;4.15;;;5.00;99.90;;;;;;2028405;70;21131;-77
2021/11/03 00:31:34;;;;;;;6.33;4.50;;;5.00;99.90;;;;;;2028927;70;21108;-78
2021/11/03 00:34:00;;;;;;;9.25;5.72;;;5.00;99.90;;;;;;2027447;70;21049;-78
2021/11/03 00:36:28;;;;;;;6.58;4.92;;;5.10;99.90;;;;;;2023810;70;21046;-78
2021/11/03 00:38:54;;;;;;;11.70;4.70;;;5.10;99.90;;;;;;2023158;70;21068;-78
2021/11/03 00:41:20;;;;;;;6.28;4.92;;;5.20;99.90;;;;;;2023256;70;21050;-77
2021/11/03 00:43:46;;;;;;;6.65;5.00;;;5.20;99.90;;;;;;2024743;70;21059;-78
2021/11/03 00:46:12;;;;;;;5.62;4.95;;;5.30;99.90;;;;;;2028240;70;21046;-77
2021/11/03 00:48:38;;;;;;;8.50;4.60;;;5.30;99.90;;;;;;2023303;69;21054;-78
2021/11/03 00:51:04;;;;;;;4.92;4.50;;;5.30;99.90;;;;;;2027410;70;21020;-78
2021/11/03 00:53:31;;;;;;;23.85;4.67;;;5.20;99.90;;;;;;2029248;70;21117;-78
2021/11/03 00:55:57;;;;;;;9.35;5.00;;;5.30;99.90;;;;;;2028406;70;21042;-78
2021/11/03 00:58:23;;;;;;;6.00;4.92;;;5.30;99.90;;;;;;2025712;70;21063;-77
2021/11/03 01:00:49;;;;;;;6.92;4.97;;;5.30;99.90;;;;;;2024121;70;21243;-78
2021/11/03 01:03:15;;;;;;;5.92;4.35;;;5.20;99.90;;;;;;2025292;69;21477;-78
2021/11/03 01:05:41;;;;;;;6.10;5.03;;;5.20;99.90;;;;;;2029060;70;21391;-78
2021/11/03 01:08:07;;;;;;;7.30;4.70;;;5.30;99.90;;;;;;2025669;70;21573;-77
2021/11/03 01:10:33;;;;;;;4.97;4.28;;;5.30;99.90;;;;;;2027304;70;21135;-78
2021/11/03 01:13:00;;;;;;;10.43;5.20;;;5.30;99.90;;;;;;2027369;70;21040;-78
2021/11/03 01:15:26;;;;;;;5.33;4.83;;;5.40;99.90;;;;;;2023234;70;21152;-77
2021/11/03 01:17:54;;;;;;;7.37;5.92;;;5.40;99.90;;;;;;2025527;69;21011;-78
2021/11/03 01:20:20;;;;;;;9.95;6.00;;;5.40;99.90;;;;;;2025472;69;21700;-78
2021/11/03 01:22:46;;;;;;;9.48;6.17;;;5.40;99.90;;;;;;2023691;70;21463;-78
2021/11/03 01:25:12;;;;;;;10.75;6.65;;;5.40;99.90;;;;;;2030995;70;21115;-77
2021/11/03 01:27:38;;;;;;;11.48;5.80;;;5.50;99.90;;;;;;2025992;70;21042;-78
2021/11/03 01:30:04;;;;;;;9.00;5.90;;;5.50;99.90;;;;;;2014802;70;21115;-78
2021/11/03 01:32:30;;;;;;;8.45;5.28;;;5.50;99.90;;;;;;2024324;70;21641;-78
2021/11/03 01:34:56;;;;;;;8.13;5.50;;;5.50;99.90;;;;;;2028081;70;21462;-78
2021/11/03 01:37:23;;;;;;;8.08;5.22;;;5.50;99.90;;;;;;2027857;70;21420;-78
2021/11/03 01:39:49;;;;;;;9.68;5.70;;;5.50;99.90;;;;;;2028563;70;21148;-78
2021/11/03 01:42:15;;;;;;;6.42;4.90;;;5.50;99.90;;;;;;2025566;70;21112;-78
2021/11/03 01:44:41;;;;;;;7.35;5.05;;;5.40;99.90;;;;;;2025629;70;21118;-78
2021/11/03 01:47:07;;;;;;;7.35;5.47;;;5.40;99.90;;;;;;2028572;70;21046;-79
2021/11/03 01:49:33;;;;;;;6.33;5.03;;;5.50;99.90;;;;;;2026260;70;21079;-76
2021/11/03 01:51:59;;;;;;;8.00;5.45;;;5.60;99.90;;;;;;2023299;70;21015;-77
2021/11/03 01:54:28;;;;;;;7.03;5.47;;;5.70;99.90;;;;;;2027741;70;21004;-77
2021/11/03 01:56:53;;;;;;;9.78;5.87;;;5.70;99.90;;;;;;2025786;70;21067;-77
2021/11/03 01:59:20;;;;;;;7.53;5.92;;;5.70;99.90;;;;;;2022733;70;21107;-77
2021/11/03 02:01:47;;;;;;;8.13;5.60;;;5.60;99.90;;;;;;2026495;70;21054;-76
2021/11/03 02:04:13;;;;;;;12.07;5.85;;;5.70;99.90;;;;;;2025812;70;21054;-78
2021/11/03 02:06:39;;;;;;;9.33;5.78;;;5.70;99.90;;;;;;2027843;70;21050;-77
2021/11/03 02:09:05;;;;;;;7.33;5.15;;;5.70;99.90;;;;;;2031026;70;21047;-76
2021/11/03 02:11:31;;;;;;;7.75;5.70;;;5.70;99.90;;;;;;2022790;70;21050;-77
2021/11/03 02:13:57;;;;;;;8.25;5.70;;;5.70;99.90;;;;;;2023417;70;21051;-78
2021/11/03 02:16:24;;;;;;;7.62;5.45;;;5.80;99.90;;;;;;2025188;70;21466;-77
2021/11/03 02:18:50;;;;;;;8.23;5.30;;;5.90;99.90;;;;;;2023431;70;21490;-80
2021/11/03 02:21:16;;;;;;;5.85;5.00;;;5.90;99.90;;;;;;2025352;70;21523;-77
2021/11/03 02:23:42;;;;;;;7.00;5.42;;;5.90;99.90;;;;;;2025263;70;21038;-78
2021/11/03 02:26:09;;;;;;;8.65;6.00;;;6.00;99.90;;;;;;2029122;70;21019;-77
2021/11/03 02:28:35;;;;;;;7.08;5.30;;;6.00;99.90;;;;;;2014116;70;21139;-77
2021/11/03 02:31:01;;;;;;;10.08;5.75;;;5.90;99.90;;;;;;2022876;70;21131;-77
2021/11/03 02:33:27;;;;;;;6.92;5.17;;;5.90;99.90;;;;;;2028853;70;21201;-77
2021/11/03 02:35:53;;;;;;;5.35;4.83;;;5.80;99.90;;;;;;2018508;70;21539;-78
2021/11/03 02:38:19;;;;;;;7.47;4.72;;;5.80;99.90;;;;;;2025137;70;21528;-77
2021/11/03 02:40:46;;;;;;;6.08;4.47;;;5.90;99.90;;;;;;2023957;70;21527;-78
2021/11/03 02:43:12;;;;;;;5.45;4.58;;;5.90;99.90;;;;;;2027113;70;21128;-78
2021/11/03 02:45:38;;;;;;;6.12;4.17;;;6.00;99.90;;;;;;2027914;70;21509;-77
2021/11/03 02:48:04;;;;;;;6.00;4.10;;;6.00;99.90;;;;;;2022905;70;21466;-77
2021/11/03 02:50:31;;;;;;;6.22;4.80;;;6.00;99.90;;;;;;2022852;70;21422;-77
2021/11/03 02:52:57;;;;;;;6.75;4.05;;;6.00;99.90;;;;;;2023869;70;21023;-78
2021/11/03 02:55:23;;;;;;;11.12;4.67;;;6.00;99.90;;;;;;2028674;69;21111;-78
2021/11/03 02:57:49;;;;;;;6.87;4.78;;;6.00;99.90;;;;;;2029834;70;21128;-78
2021/11/03 03:00:16;;;;;;;4.65;4.12;;;6.10;99.90;;;;;;2023425;70;21450;-78
2021/11/03 03:02:42;;;;;;;5.75;4.53;;;6.10;99.90;;;;;;2024465;70;21482;-78
2021/11/03 03:05:08;;;;;;;6.08;4.40;;;6.00;99.90;;;;;;2024315;70;21203;-77
2021/11/03 03:07:34;;;;;;;6.25;4.30;;;6.00;99.90;;;;;;2026148;70;21120;-77
2021/11/03 03:10:01;;;;;;;5.78;4.45;;;6.10;99.90;;;;;;2025132;70;21015;-77
2021/11/03 03:12:29;;;;;;;8.15;4.53;;;6.10;99.90;;;;;;2026958;70;21032;-77
2021/11/03 03:14:55;;;;;;;4.67;3.75;;;6.10;99.90;;;;;;2024375;70;21149;-77
2021/11/03 03:17:21;;;;;;;7.40;4.40;;;6.10;99.90;;;;;;2026940;70;21024;-77
2021/11/03 03:19:47;;;;;;;5.75;3.70;;;6.10;99.90;;;;;;2025174;70;21197;-77
2021/11/03 03:22:13;;;;;;;5.67;3.75;;;6.20;99.90;;;;;;2026280;70;21046;-77
2021/11/03 03:24:39;;;;;;;4.60;4.00;;;6.10;99.90;;;;;;2028011;70;21051;-77
2021/11/03 03:27:05;;;;;;;6.83;4.28;;;6.10;99.90;;;;;;2030461;70;21132;-77
2021/11/03 03:29:31;;;;;;;6.90;4.35;;;6.00;99.90;;;;;;2025431;69;21211;-76
2021/11/03 03:31:57;;;;;;;5.30;4.12;;;6.10;99.90;;;;;;2025534;70;21509;-76
2021/11/03 03:34:24;;;;;;;4.65;4.08;;;6.00;99.90;;;;;;2028675;70;21446;-77
2021/11/03 03:36:50;;;;;;;7.25;4.42;;;6.00;99.90;;;;;;2022919;70;21048;-76
2021/11/03 03:39:18;;;;;;;5.97;4.62;;;5.90;99.90;;;;;;2025200;69;21177;-76
2021/11/03 03:41:44;;;;;;;6.33;4.28;;;5.90;99.90;;;;;;2027142;70;21055;-77
2021/11/03 03:44:10;;;;;;;5.37;4.28;;;6.00;99.90;;;;;;2026536;69;21155;-77
2021/11/03 03:46:36;;;;;;;7.03;4.87;;;6.00;99.90;;;;;;2027004;70;21011;-77
2021/11/03 03:49:02;;;;;;;6.03;4.50;;;5.90;99.90;;;;;;2025276;70;21046;-76
2021/11/03 03:51:28;;;;;;;6.17;4.12;;;6.00;99.90;;;;;;2023925;70;21147;-76
2021/11/03 03:53:54;;;;;;;6.87;4.80;;;6.10;99.90;;;;;;2027667;70;21050;-77
2021/11/03 03:56:21;;;;;;;6.25;4.03;;;6.10;99.90;;;;;;2025404;70;21038;-77
2021/11/03 03:58:52;;;;;;;4.78;3.87;;;6.10;99.90;;;;;;2025437;70;21168;-77
2021/11/03 04:01:16;;;;;;;5.87;4.33;;;6.10;99.90;;;;;;2027484;70;21553;-77
2021/11/03 04:03:42;;;;;;;6.72;4.50;;;6.00;99.90;;;;;;2025748;70;21505;-77
2021/11/03 04:06:08;;;;;;;7.60;4.00;;;6.10;99.90;;;;;;2027202;70;21494;-76
2021/11/03 04:08:34;;;;;;;4.67;4.12;;;6.10;99.90;;;;;;2029486;70;21535;-77
2021/11/03 04:11:00;;;;;;;5.17;4.22;;;6.00;99.90;;;;;;2017515;70;21057;-76
2021/11/03 04:13:26;;;;;;;4.58;3.75;;;6.00;99.90;;;;;;2026950;70;21169;-76
2021/11/03 04:15:52;;;;;;;5.58;4.28;;;6.10;99.90;;;;;;2023097;70;21184;-76
2021/11/03 04:18:18;;;;;;;7.10;4.22;;;6.20;99.90;;;;;;2024099;70;21205;-76
2021/11/03 04:20:45;;;;;;;6.55;4.12;;;6.10;99.90;;;;;;2027159;70;21180;-78
2021/11/03 04:23:11;;;;;;;6.10;4.10;;;6.00;99.90;;;;;;2027131;70;21115;-78
2021/11/03 04:25:37;;;;;;;8.05;4.20;;;6.10;99.90;;;;;;2025818;70;21061;-78
2021/11/03 04:28:03;;;;;;;8.08;4.20;;;6.10;99.90;;;;;;2025375;70;21131;-78
2021/11/03 04:30:29;;;;;;;8.40;4.25;;;6.10;99.90;;;;;;2016826;70;21454;-79
2021/11/03 04:32:55;;;;;;;7.37;4.30;;;6.10;99.90;;;;;;2021433;70;21415;-78
2021/11/03 04:35:21;;;;;;;6.37;4.53;;;6.10;99.90;;;;;;2023472;70;21545;-78
2021/11/03 04:37:47;;;;;;;5.85;4.58;;;6.10;99.90;;;;;;2024118;70;21034;-78
2021/11/03 04:40:14;;;;;;;4.37;3.87;;;6.10;99.90;;;;;;2026952;70;21058;-77
2021/11/03 04:42:40;;;;;;;5.72;4.35;;;6.10;99.90;;;;;;2023627;69;21154;-76
2021/11/03 04:45:06;;;;;;;6.55;4.35;;;6.10;99.90;;;;;;2026714;70;21129;-78
2021/11/03 04:47:32;;;;;;;7.75;4.10;;;6.00;99.90;;;;;;2027580;70;21086;-78
2021/11/03 04:49:59;;;;;;;7.60;4.37;;;6.00;99.90;;;;;;2024835;70;21136;-77
2021/11/03 04:52:25;;;;;;;4.95;3.87;;;6.00;99.90;;;;;;2028138;69;21480;-78
2021/11/03 04:54:52;;;;;;;5.37;4.45;;;6.00;99.90;;;;;;2027697;70;21483;-78
2021/11/03 04:57:18;;;;;;;7.87;4.60;;;6.00;99.90;;;;;;2026033;70;21117;-78
2021/11/03 04:59:45;;;;;;;9.48;4.92;;;5.90;99.90;;;;;;2019536;70;21477;-77
2021/11/03 05:02:11;;;;;;;6.92;4.67;;;5.90;99.90;;;;;;2026058;70;21059;-78
2021/11/03 05:04:37;;;;;;;6.10;4.78;;;6.00;99.90;;;;;;2022906;70;21050;-78
2021/11/03 05:07:03;;;;;;;5.85;5.00;;;6.00;99.90;;;;;;2025409;70;21108;-78
2021/11/03 05:09:29;;;;;;;10.03;6.40;;;6.00;99.90;;;;;;2017772;70;21040;-78
2021/11/03 05:11:56;;;;;;;6.70;5.47;;;5.90;99.90;;;;;;2028922;69;21169;-78
2021/11/03 05:14:22;;;;;;;7.40;5.00;;;5.90;99.90;;;;;;2022997;70;21042;-77
2021/11/03 05:16:48;;;;;;;8.88;5.97;;;6.00;99.90;;;;;;2024099;70;21188;-77
2021/11/03 05:19:14;;;;;;;5.53;4.97;;;6.00;99.90;;;;;;2028175;70;21439;-77
2021/11/03 05:21:41;;;;;;;7.05;5.53;;;6.00;99.90;;;;;;2021247;70;21148;-79
2021/11/03 05:24:07;;;;;;;9.95;5.70;;;5.90;99.90;;;;;;2023522;70;21116;-77
2021/11/03 05:26:33;;;;;;;10.32;5.83;;;6.00;99.90;;;;;;2027046;70;21015;-76
2021/11/03 05:29:00;;;;;;;7.40;5.33;;;5.90;99.90;;;;;;2030119;70;21054;-77
2021/11/03 05:31:26;;;;;;;9.40;6.20;;;6.10;99.90;;;;;;2024293;70;21046;-77
2021/11/03 05:33:52;;;;;;;9.88;5.60;;;6.10;99.90;;;;;;2024018;70;21055;-77
2021/11/03 05:36:19;;;;;;;7.08;5.15;;;6.00;99.90;;;;;;2028010;69;21147;-77
2021/11/03 05:38:45;;;;;;;13.70;6.28;;;6.10;99.90;;;;;;2026923;70;21124;-77
2021/11/03 05:41:11;;;;;;;8.48;5.80;;;6.10;99.90;;;;;;2029346;70;21047;-77
2021/11/03 05:43:37;;;;;;;7.97;5.37;;;6.10;99.90;;;;;;2025823;70;21083;-77
2021/11/03 05:46:03;;;;;;;8.95;5.80;;;6.10;99.90;;;;;;2025994;70;21131;-76
2021/11/03 05:48:30;;;;;;;12.47;6.28;;;6.10;99.90;;;;;;2029031;70;21465;-76
2021/11/03 05:50:57;;;;;;;13.45;5.75;;;6.10;99.90;;;;;;2026295;70;21020;-77
2021/11/03 05:53:23;;;;;;;8.68;5.45;;;6.20;99.90;;;;;;2024104;69;21046;-79
2021/11/03 05:55:49;;;;;;;12.70;5.87;;;6.30;99.90;;;;;;2026844;70;21098;-77
2021/11/03 05:58:15;;;;;;;7.78;5.75;;;6.20;99.90;;;;;;2029481;70;21046;-77
2021/11/03 06:00:41;;;;;;;8.33;5.62;;;6.10;99.90;;;;;;2026057;69;21047;-78
2021/11/03 06:03:07;;;;;;;7.90;5.75;;;6.10;99.90;;;;;;2028321;69;21012;-77
2021/11/03 06:05:33;;;;;;;7.55;6.35;;;6.10;99.90;;;;;;2025098;70;21046;-77
2021/11/03 06:07:59;;;;;;;7.50;6.35;;;6.20;99.90;;;;;;2027371;70;21222;-76
2021/11/03 06:10:26;;;;;;;7.33;5.80;;;6.20;99.90;;;;;;2025301;70;21093;-76
2021/11/03 06:12:53;;;;;;;6.42;5.75;;;6.20;99.90;;;;;;2029297;70;21019;-76
2021/11/03 06:15:19;;;;;;;11.48;6.40;;;6.20;99.90;;;;;;2028829;70;21091;-77
2021/11/03 06:17:47;;;;;;;9.13;6.58;;;6.10;99.90;;;;;;2025826;70;21047;-76
2021/11/03 06:20:13;;;;;;;8.38;5.78;;;6.10;99.90;;;;;;2027026;70;21173;-76
2021/11/03 06:22:39;;;;;;;6.72;5.95;;;6.10;99.90;;;;;;2028983;70;21054;-78
2021/11/03 06:25:06;;;;;;;13.28;6.12;;;6.20;99.90;;;;;;2028310;70;21046;-78
2021/11/03 06:27:32;;;;;;;9.15;6.37;;;6.20;99.90;;;;;;2023598;70;21093;-78
2021/11/03 06:29:58;;;;;;;10.82;6.40;;;6.20;99.90;;;;;;2022901;70;21040;-77
2021/11/03 06:32:24;;;;;;;10.32;6.65;;;6.20;99.90;;;;;;2026193;70;21054;-77
2021/11/03 06:34:51;;;;;;;9.83;6.42;;;6.30;99.90;;;;;;2031442;70;21128;-76
2021/11/03 06:37:17;;;;;;;8.88;6.65;;;6.30;99.90;;;;;;2026568;70;21144;-77
2021/11/03 06:39:43;;;;;;;12.43;5.65;;;6.30;99.90;;;;;;2004256;70;21009;-78
2021/11/03 06:42:09;;;;;;;11.83;6.28;;;6.40;99.90;;;;;;2025363;70;21117;-78
2021/11/03 06:44:37;;;;;;;9.20;6.17;;;6.50;99.90;;;;;;2022989;70;21079;-78
2021/11/03 06:47:03;;;;;;;10.72;6.12;;;6.50;99.90;;;;;;2025228;70;21094;-79
2021/11/03 06:49:29;;;;;;;8.05;6.37;;;6.60;99.90;;;;;;2022902;70;21182;-75
2021/11/03 06:51:55;;;;;;;7.30;6.08;;;6.60;99.90;;;;;;2026959;69;21124;-76
2021/11/03 06:54:22;;;;;;;17.70;5.72;;;6.60;99.90;;;;;;2025838;70;21120;-78
2021/11/03 06:56:48;;;;;;;11.30;5.78;;;6.70;99.90;;;;;;2025012;70;21157;-77
2021/11/03 06:59:14;;;;;;;7.03;5.58;;;6.80;99.90;;;;;;2026266;69;21134;-77
2021/11/03 07:01:40;;;;;;;8.03;5.67;;;6.70;99.90;;;;;;2027136;70;21050;-77
2021/11/03 07:04:07;;;;;;;13.35;6.40;;;6.70;99.90;;;;;;2028039;70;21043;-77
2021/11/03 07:06:33;;;;;;;7.67;5.75;;;6.70;99.90;;;;;;2025422;69;21486;-77
2021/11/03 07:08:59;;;;;;;6.30;5.65;;;6.80;99.90;;;;;;2022952;70;21035;-77
2021/11/03 07:11:27;;;;;;;6.70;5.35;;;6.90;99.90;;;;;;2025296;70;21134;-77
2021/11/03 07:13:55;;;;;;;9.05;5.20;;;7.00;99.90;;;;;;2023656;70;21173;-79
2021/11/03 07:16:22;;;;;;;9.73;5.50;;;7.00;99.90;;;;;;2028155;70;21136;-78
2021/11/03 07:18:48;;;;;;;7.35;5.28;;;7.00;99.90;;;;;;2024640;70;21058;-77
2021/11/03 07:21:14;;;;;;;8.05;5.25;;;7.10;99.90;;;;;;2026794;70;21111;-77
2021/11/03 07:23:42;;;;;;;8.05;5.00;;;7.10;99.90;;;;;;2025164;70;21066;-76
2021/11/03 07:26:08;;;;;;;6.70;5.12;;;7.10;99.90;;;;;;2025427;70;21018;-76
2021/11/03 07:28:36;;;;;;;5.78;4.50;;;7.10;99.90;;;;;;2025609;70;21063;-73
2021/11/03 07:31:02;;;;;;;10.70;5.08;;;7.30;99.90;;;;;;2025055;69;21104;-78
2021/11/03 07:33:28;;;;;;;7.70;4.87;;;7.50;99.90;;;;;;2022834;70;21111;-78
2021/11/03 07:35:54;;;;;;;6.45;4.22;;;7.50;99.90;;;;;;2025393;70;21046;-77
2021/11/03 07:38:20;;;;;;;7.83;4.45;;;7.50;99.90;;;;;;2029727;70;21028;-77
2021/11/03 07:40:46;;;;;;;10.20;5.53;;;7.40;99.90;;;;;;2027295;70;21125;-79
2021/11/03 07:43:12;;;;;;;5.80;4.45;;;7.40;99.90;;;;;;2025278;70;21124;-77
2021/11/03 07:45:39;;;;;;;6.33;4.10;;;7.40;99.90;;;;;;2031572;70;21544;-77
2021/11/03 07:48:05;;;;;;;10.10;4.58;;;7.60;99.90;;;;;;2000129;70;21024;-78
2021/11/03 07:50:31;;;;;;;9.13;4.53;;;7.60;99.90;;;;;;2027025;70;21123;-77
2021/11/03 07:52:57;;;;;;;4.40;4.00;;;7.70;99.90;;;;;;2026874;70;21050;-77
2021/11/03 07:55:23;;;;;;;4.03;3.72;;;7.80;99.90;;;;;;2025970;69;21125;-77
2021/11/03 07:57:49;;;;;;;4.55;4.00;;;7.90;99.90;;;;;;2020339;70;21164;-77
2021/11/03 08:00:15;;;;;;;8.00;4.20;;;7.90;99.90;;;;;;2028508;70;22425;-78
2021/11/03 08:02:42;;;;;;;4.22;3.65;;;7.90;99.90;;;;;;2025824;69;21098;-78
2021/11/03 08:05:08;;;;;;;3.42;3.12;;;8.00;99.90;;;;;;2027492;69;21050;-77
2021/11/03 08:07:34;;;;;;;9.23;4.03;;;8.20;99.90;;;;;;2023282;70;21103;-77
2021/11/03 08:10:01;;;;;;;3.80;3.40;;;8.40;99.90;;;;;;2024049;70;21151;-77
2021/11/03 08:12:27;;;;;;;7.35;3.37;;;8.40;99.90;;;;;;2025816;70;21059;-78
2021/11/03 08:14:54;;;;;;;7.55;3.50;;;8.40;99.90;;;;;;2027072;70;21050;-76
2021/11/03 08:17:20;;;;;;;4.15;3.75;;;8.30;99.90;;;;;;2027460;70;21042;-77
2021/11/03 08:19:48;;;;;;;7.17;3.77;;;8.40;99.90;;;;;;2030063;70;21007;-78
2021/11/03 08:22:15;;;;;;;6.75;3.70;;;8.40;99.90;;;;;;2029753;70;21095;-76
2021/11/03 08:24:41;;;;;;;5.62;3.60;;;8.30;99.90;;;;;;2026298;70;21131;-77
2021/11/03 08:27:07;;;;;;;5.70;3.08;;;8.30;99.90;;;;;;2023532;70;21054;-77
2021/11/03 08:29:33;;;;;;;5.03;3.47;;;8.40;99.90;;;;;;2028932;70;21170;-80
2021/11/03 08:32:00;;;;;;;4.85;3.40;;;8.50;99.90;;;;;;2023670;70;21051;-80
2021/11/03 08:34:26;;;;;;;7.25;3.50;;;8.50;99.90;;;;;;2024044;70;21019;-80
2021/11/03 08:36:52;;;;;;;4.42;2.50;;;8.60;99.90;;;;;;2024115;70;21120;-79
2021/11/03 08:39:18;;;;;;;3.87;2.65;;;8.50;99.90;;;;;;2020365;70;21151;-80
2021/11/03 08:41:44;;;;;;;3.85;2.30;;;8.50;99.90;;;;;;2027956;70;21051;-79
2021/11/03 08:44:10;;;;;;;5.47;2.62;;;8.60;99.90;;;;;;2018264;70;21046;-80
2021/11/03 08:46:38;;;;;;;4.80;2.50;;;8.60;99.90;;;;;;2018756;70;21012;-77
2021/11/03 08:49:04;;;;;;;4.62;2.08;;;8.70;99.90;;;;;;2026174;70;21474;-77
2021/11/03 08:51:31;;;;;;;3.08;2.33;;;8.70;99.90;;;;;;2027548;70;21139;-79
2021/11/03 08:53:57;;;;;;;6.92;2.47;;;8.90;99.90;;;;;;2025675;69;21119;-79
2021/11/03 08:56:23;;;;;;;4.08;1.98;;;8.90;99.90;;;;;;2027772;70;21120;-79
2021/11/03 08:58:49;;;;;;;2.22;1.80;;;9.10;99.90;;;;;;2027926;70;21546;-78
2021/11/03 09:01:15;;;;;;;4.10;2.02;;;9.30;99.90;;;;;;2023350;70;21624;-77
2021/11/03 09:03:41;;;;;;;3.52;1.67;;;9.50;99.90;;;;;;2022978;70;21438;-78
2021/11/03 09:06:07;;;;;;;2.98;1.85;;;9.60;99.90;;;;;;2028323;70;21034;-78
2021/11/03 09:08:33;;;;;;;2.05;1.57;;;9.60;99.90;;;;;;2023635;70;21053;-79
2021/11/03 09:11:02;;;;;;;4.20;1.95;;;9.60;99.90;;;;;;2022972;70;21229;-78
2021/11/03 09:13:28;;;;;;;1.62;1.52;;;9.60;99.90;;;;;;2007869;70;21051;-79
2021/11/03 09:15:54;;;;;;;14.03;1.67;;;9.50;99.90;;;;;;2028621;69;21046;-80
2021/11/03 09:18:20;;;;;;;2.05;1.27;;;9.60;99.90;;;;;;2027612;70;21042;-79
2021/11/03 09:20:47;;;;;;;4.03;1.60;;;9.50;99.90;;;;;;2027400;69;21474;-79
2021/11/03 09:23:13;;;;;;;2.62;1.55;;;9.60;99.90;;;;;;2025944;70;21012;-78
2021/11/03 09:25:39;;;;;;;1.50;1.40;;;9.70;99.90;;;;;;2016212;70;21583;-79
2021/11/03 09:28:06;;;;;;;4.15;1.75;;;9.70;99.90;;;;;;2019127;70;21038;-80
2021/11/03 09:30:34;;;;;;;1.77;1.30;;;9.80;99.90;;;;;;2020775;70;21632;-80
2021/11/03 09:33:01;;;;;;;1.42;1.12;;;9.90;99.90;;;;;;2023369;70;21127;-80
2021/11/03 09:35:27;;;;;;;2.22;1.20;;;10.00;99.90;;;;;;2025088;70;21047;-79
2021/11/03 09:37:55;;;;;;;2.75;1.30;;;10.30;99.90;;;;;;2026723;70;21055;-80
2021/11/03 09:40:23;;;;;;;1.95;1.22;;;10.40;99.90;;;;;;2018893;70;21046;-80
2021/11/03 09:42:49;;;;;;;2.35;1.10;;;10.40;99.90;;;;;;2026601;70;21164;-79
2021/11/03 09:45:17;;;;;;;3.95;1.40;;;10.40;99.90;;;;;;2028593;70;21007;-79
2021/11/03 09:47:43;;;;;;;0.93;0.78;;;10.50;99.90;;;;;;2027534;69;21083;-78
2021/11/03 09:50:09;;;;;;;3.85;1.07;;;10.60;99.90;;;;;;2027432;70;21095;-77
2021/11/03 09:52:35;;;;;;;3.08;0.95;;;10.70;99.90;;;;;;2028596;69;21119;-76
2021/11/03 09:55:01;;;;;;;1.15;0.90;;;10.70;99.90;;;;;;2027919;70;21467;-79
2021/11/03 09:57:27;;;;;;;3.17;1.05;;;10.80;99.90;;;;;;2024657;70;21046;-79
2021/11/03 09:59:53;;;;;;;1.65;1.20;;;10.80;99.90;;;;;;2022938;69;21110;-80
2021/11/03 10:02:20;;;;;;;3.70;1.25;;;10.70;99.90;;;;;;2027008;70;21081;-79
2021/11/03 10:04:46;;;;;;;1.40;1.05;;;10.60;99.90;;;;;;2027347;70;21046;-80
2021/11/03 10:07:13;;;;;;;4.37;1.37;;;10.60;99.90;;;;;;2027867;69;21062;-78
2021/11/03 10:09:39;;;;;;;4.28;1.30;;;10.70;99.90;;;;;;2023308;70;21046;-79
2021/11/03 10:12:06;;;;;;;3.30;1.10;;;10.90;99.90;;;;;;2025754;70;21115;-78
2021/11/03 10:14:32;;;;;;;1.32;1.00;;;11.10;99.90;;;;;;2027091;69;21115;-79
2021/11/03 10:16:58;;;;;;;4.08;1.27;;;11.10;99.90;;;;;;2025853;69;21058;-79
2021/11/03 10:19:24;;;;;;;2.27;1.25;;;11.00;99.90;;;;;;2027276;69;21540;-80
2021/11/03 10:21:50;;;;;;;5.20;1.12;;;11.20;99.90;;;;;;2025776;70;21524;-77
2021/11/03 10:24:17;;;;;;;2.10;1.10;;;11.20;99.90;;;;;;2022987;70;21185;-76
2021/11/03 10:26:43;;;;;;;2.00;0.90;;;11.20;99.90;;;;;;2026931;70;21127;-75
2021/11/03 10:29:09;;;;;;;1.85;1.27;;;11.10;99.90;;;;;;2025276;70;21038;-75
2021/11/03 10:31:35;;;;;;;2.95;1.30;;;11.00;99.90;;;;;;2023471;70;21452;-75
2021/11/03 10:34:01;;;;;;;1.52;1.37;;;11.00;99.90;;;;;;2032722;70;21442;-76
2021/11/03 10:36:28;;;;;;;4.28;1.10;;;10.90;99.90;;;;;;2031896;70;21019;-78
2021/11/03 10:38:57;;;;;;;1.98;1.07;;;10.80;99.90;;;;;;2025488;70;21481;-78
2021/11/03 10:41:23;;;;;;;8.65;1.47;;;10.80;99.90;;;;;;2027717;70;21046;-79
2021/11/03 10:43:49;;;;;;;5.20;1.22;;;10.90;99.90;;;;;;2025682;70;21120;-78
2021/11/03 10:46:15;;;;;;;2.80;1.20;;;10.80;99.90;;;;;;2025361;70;21123;-78
2021/11/03 10:48:42;;;;;;;12.07;1.20;;;10.90;99.90;;;;;;2026390;70;21059;-79
2021/11/03 10:51:08;;;;;;;1.67;1.20;;;11.00;99.90;;;;;;2025735;70;21446;-79
2021/11/03 10:53:36;;;;;;;1.02;0.80;;;11.20;99.90;;;;;;2024713;70;21084;-78
2021/11/03 10:56:02;;;;;;;4.10;0.75;;;11.10;99.90;;;;;;2025700;70;21099;-76
2021/11/03 10:58:29;;;;;;;1.15;0.90;;;11.40;99.90;;;;;;2025187;70;21054;-78
2021/11/03 11:00:57;;;;;;;2.33;1.00;;;11.20;99.90;;;;;;2026179;70;21058;-78
2021/11/03 11:03:23;;;;;;;1.17;1.07;;;11.20;99.90;;;;;;2025473;70;21541;-77
2021/11/03 11:05:51;;;;;;;2.10;1.02;;;10.90;99.90;;;;;;2028368;70;21055;-76
2021/11/03 11:08:18;;;;;;;2.20;1.20;;;10.90;99.90;;;;;;2024920;70;21015;-75
2021/11/03 11:10:44;;;;;;;2.00;1.22;;;10.70;99.90;;;;;;2027904;69;21046;-76
2021/11/03 11:13:10;;;;;;;0.90;0.85;;;10.70;99.90;;;;;;2027839;70;21139;-76
2021/11/03 11:15:37;;;;;;;3.25;0.90;;;10.80;99.90;;;;;;2029542;70;21124;-76
2021/11/03 11:18:03;;;;;;;4.62;1.10;;;10.90;99.90;;;;;;2025465;70;21144;-75
2021/11/03 11:20:29;;;;;;;2.42;1.00;;;10.80;99.90;;;;;;2023691;70;21111;-76
2021/11/03 11:22:55;;;;;;;2.35;1.00;;;10.70;99.90;;;;;;2016266;70;21054;-76
2021/11/03 11:25:21;;;;;;;1.22;1.10;;;10.70;99.90;;;;;;2027658;70;21091;-75
2021/11/03 11:27:47;;;;;;;2.20;1.20;;;10.70;99.90;;;;;;2026130;70;21388;-75
2021/11/03 11:30:15;;;;;;;2.75;1.30;;;10.70;99.90;;;;;;2026589;70;21471;-75
2021/11/03 11:32:41;;;;;;;3.10;1.17;;;10.70;99.90;;;;;;2027293;69;21102;-75
2021/11/03 11:35:07;;;;;;;1.12;1.00;;;10.80;99.90;;;;;;2024577;70;21157;-74
2021/11/03 11:37:33;;;;;;;4.72;1.52;;;10.70;99.90;;;;;;2025185;70;21011;-75
2021/11/03 11:40:00;;;;;;;4.05;2.98;;;10.50;99.90;;;;;;2028941;69;21116;-75
2021/11/03 11:42:26;;;;;;;2.37;1.75;;;10.60;99.90;;;;;;2030797;70;21060;-74
2021/11/03 11:44:52;;;;;;;7.05;1.80;;;10.70;99.90;;;;;;2025283;70;21127;-75
2021/11/03 11:47:18;;;;;;;2.20;1.57;;;10.60;99.90;;;;;;2026926;70;21058;-75
2021/11/03 11:49:44;;;;;;;2.47;1.90;;;10.60;99.90;;;;;;2027562;70;21469;-75
2021/11/03 11:52:10;;;;;;;6.40;2.42;;;10.70;99.90;;;;;;2022961;70;21195;-77
2021/11/03 11:54:36;;;;;;;4.10;1.72;;;10.80;99.90;;;;;;2028004;69;21128;-78
2021/11/03 11:57:04;;;;;;;2.67;1.77;;;10.80;99.90;;;;;;2029645;70;21168;-80
2021/11/03 11:59:30;;;;;;;3.05;1.87;;;10.90;99.90;;;;;;2028933;70;21047;-78
2021/11/03 12:01:56;;;;;;;3.37;1.70;;;11.00;99.90;;;;;;2026260;70;21051;-77
2021/11/03 12:04:22;;;;;;;4.25;1.72;;;11.00;99.90;;;;;;2015483;70;21131;-80
2021/11/03 12:06:48;;;;;;;4.20;1.50;;;10.90;99.90;;;;;;2025990;70;21445;-80
2021/11/03 12:09:14;;;;;;;2.67;1.77;;;11.00;99.90;;;;;;2025965;70;21455;-81
2021/11/03 12:11:42;;;;;;;2.02;1.05;;;11.00;99.90;;;;;;2028274;70;21090;-77
2021/11/03 12:14:10;;;;;;;1.98;1.50;;;11.20;99.90;;;;;;2028082;70;21087;-76
2021/11/03 12:16:36;;;;;;;2.15;1.40;;;11.20;99.90;;;;;;2023663;70;21248;-78
2021/11/03 12:19:02;;;;;;;6.83;1.92;;;11.10;99.90;;;;;;2028591;70;21016;-78
2021/11/03 12:21:29;;;;;;;3.95;1.55;;;11.10;99.90;;;;;;2026698;70;21486;-77
2021/11/03 12:23:55;;;;;;;3.10;1.67;;;11.10;99.90;;;;;;2028001;70;21067;-79
2021/11/03 12:26:22;;;;;;;3.50;2.10;;;11.00;99.90;;;;;;2031586;70;21114;-79
2021/11/03 12:28:48;;;;;;;2.80;1.52;;;11.10;99.90;;;;;;2026226;70;21045;-79
2021/11/03 12:31:14;;;;;;;1.95;1.70;;;11.20;99.90;;;;;;2026601;70;21446;-78
2021/11/03 12:33:40;;;;;;;5.08;2.10;;;11.30;99.90;;;;;;2027756;70;21584;-77
2021/11/03 12:36:11;;;;;;;1.80;1.50;;;11.30;99.90;;;;;;2017635;70;21438;-78
2021/11/03 12:38:34;;;;;;;5.30;1.47;;;11.40;99.90;;;;;;2027507;70;21145;-76
2021/11/03 12:41:00;;;;;;;3.15;1.60;;;11.30;99.90;;;;;;2023431;70;21192;-77
2021/11/03 12:43:26;;;;;;;6.83;2.08;;;11.40;99.90;;;;;;2028282;70;21115;-77
2021/11/03 12:45:52;;;;;;;6.35;2.05;;;11.30;99.90;;;;;;2027323;70;21055;-78
2021/11/03 12:48:18;;;;;;;10.43;2.05;;;11.30;99.90;;;;;;2027493;69;21151;-77